createdAt,value
2023-05-08T00:00:59.649Z,0.46
2023-05-08T00:03:27.953Z,0.46
2023-05-08T00:05:57.010Z,0.44
2023-05-08T00:08:25.232Z,0.40
2023-05-08T00:10:53.776Z,0.34
2023-05-08T00:13:21.842Z,0.34
2023-05-08T00:15:50.644Z,0.33
2023-05-08T00:18:18.345Z,0.33
2023-05-08T00:20:46.614Z,0.27
2023-05-08T00:23:14.628Z,0.31
2023-05-08T00:25:42.661Z,0.31
2023-05-08T00:28:10.397Z,0.27
2023-05-08T00:30:39.360Z,0.22
2023-05-08T00:33:07.350Z,0.20
2023-05-08T00:35:35.386Z,0.19
2023-05-08T00:38:03.801Z,0.16
2023-05-08T00:40:32.066Z,0.11
2023-05-08T00:43:00.225Z,0.07
2023-05-08T00:45:33.907Z,0.03
2023-05-08T00:48:04.335Z,0.02
2023-05-08T00:50:33.317Z,-0.01
2023-05-08T00:53:04.060Z,-0.02
2023-05-08T00:55:33.665Z,-0.04
2023-05-08T00:58:01.543Z,-0.08
2023-05-08T01:00:30.078Z,-0.10
2023-05-08T01:02:58.969Z,-0.11
2023-05-08T01:05:28.641Z,-0.07
2023-05-08T01:07:56.936Z,-0.06
2023-05-08T01:10:27.095Z,-0.07
2023-05-08T01:13:19.895Z,-0.06
2023-05-08T01:15:54.581Z,-0.08
2023-05-08T01:18:38.387Z,-0.11
2023-05-08T01:21:13.622Z,-0.14
2023-05-08T01:24:07.595Z,-0.22
2023-05-08T01:26:48.341Z,-0.28
2023-05-08T01:29:53.480Z,-0.28
2023-05-08T01:32:30.932Z,-0.31
2023-05-08T01:35:18.308Z,-0.42
2023-05-08T01:37:53.831Z,-0.41
2023-05-08T01:40:58.856Z,-0.47
2023-05-08T01:43:40.260Z,-0.51
2023-05-08T01:46:14.148Z,-0.54
2023-05-08T01:49:10.158Z,-0.56
2023-05-08T01:51:59.871Z,-0.58
2023-05-08T01:54:33.382Z,-0.63
2023-05-08T01:57:01.071Z,-0.65
2023-05-08T01:59:30.419Z,-0.71
2023-05-08T02:01:59.407Z,-0.71
2023-05-08T02:04:28.187Z,-0.73
2023-05-08T02:06:57.466Z,-0.74
2023-05-08T02:09:27.422Z,-0.70
2023-05-08T02:11:56.272Z,-0.74
2023-05-08T02:14:26.448Z,-0.73
2023-05-08T02:16:55.300Z,-0.75
2023-05-08T02:19:26.034Z,-0.84
2023-05-08T02:21:54.678Z,-0.75
2023-05-08T02:24:23.946Z,-0.74
2023-05-08T02:26:53.171Z,-0.72
2023-05-08T02:29:23.276Z,-0.75
2023-05-08T02:31:51.570Z,-0.74
2023-05-08T02:34:20.800Z,-0.75
2023-05-08T02:36:51.436Z,-0.80
2023-05-08T02:39:21.062Z,-0.86
2023-05-08T02:41:49.064Z,-0.86
2023-05-08T02:44:18.422Z,-0.90
2023-05-08T02:47:10.647Z,-0.93
2023-05-08T02:49:47.130Z,-0.95
2023-05-08T02:52:25.844Z,-0.95
2023-05-08T02:55:03.082Z,-0.99
2023-05-08T02:57:36.729Z,-1.00
2023-05-08T03:00:11.535Z,-1.00
2023-05-08T03:02:55.035Z,-1.01
2023-05-08T03:05:32.333Z,-1.01
2023-05-08T03:08:05.947Z,-0.99
2023-05-08T03:10:35.760Z,-0.99
2023-05-08T03:13:06.592Z,-0.96
2023-05-08T03:15:42.341Z,-0.94
2023-05-08T03:18:14.402Z,-0.92
2023-05-08T03:20:45.964Z,-0.87
2023-05-08T03:23:15.813Z,-0.85
2023-05-08T03:25:44.286Z,-0.83
2023-05-08T03:28:14.463Z,-0.79
2023-05-08T03:30:43.896Z,-0.74
2023-05-08T03:33:14.715Z,-0.72
2023-05-08T03:35:43.051Z,-0.65
2023-05-08T03:38:11.027Z,-0.59
2023-05-08T03:40:39.508Z,-0.56
2023-05-08T03:43:08.187Z,-0.53
2023-05-08T03:45:38.783Z,-0.48
2023-05-08T03:48:08.593Z,-0.42
2023-05-08T03:50:38.806Z,-0.34
2023-05-08T03:53:09.809Z,-0.27
2023-05-08T03:55:38.461Z,-0.23
2023-05-08T03:58:27.020Z,-0.19
2023-05-08T04:01:05.334Z,-0.11
2023-05-08T04:03:58.439Z,-0.01
2023-05-08T04:06:48.602Z,0.04
2023-05-08T04:09:36.946Z,0.14
2023-05-08T04:12:17.456Z,0.26
2023-05-08T04:14:55.556Z,0.39
2023-05-08T04:17:43.702Z,0.51
2023-05-08T04:20:17.127Z,0.68
2023-05-08T04:22:48.771Z,0.79
2023-05-08T04:25:17.904Z,0.95
2023-05-08T04:27:47.347Z,1.08
2023-05-08T04:30:16.168Z,1.24
2023-05-08T04:32:46.858Z,1.31
2023-05-08T04:35:16.457Z,1.54
2023-05-08T04:37:46.047Z,1.75
2023-05-08T04:40:14.535Z,1.94
2023-05-08T04:42:44.214Z,2.13
2023-05-08T04:45:12.555Z,2.36
2023-05-08T04:47:41.553Z,2.57
2023-05-08T04:50:10.086Z,2.80
2023-05-08T04:52:38.571Z,3.03
2023-05-08T04:55:08.270Z,3.26
2023-05-08T04:57:39.220Z,3.48
2023-05-08T05:00:07.357Z,3.74
2023-05-08T05:02:39.878Z,4.08
2023-05-08T05:05:08.416Z,4.32
2023-05-08T05:07:37.243Z,4.62
2023-05-08T05:10:06.569Z,4.99
2023-05-08T05:12:37.138Z,5.36
2023-05-08T05:15:05.866Z,5.86
2023-05-08T05:17:36.274Z,6.38
2023-05-08T05:20:05.142Z,6.93
2023-05-08T05:22:33.809Z,7.33
2023-05-08T05:25:02.244Z,7.78
2023-05-08T05:27:30.435Z,8.23
2023-05-08T05:29:58.951Z,8.71
2023-05-08T05:32:27.837Z,9.24
2023-05-08T05:34:56.177Z,9.57
2023-05-08T05:37:24.691Z,9.85
2023-05-08T05:39:54.433Z,10.12
2023-05-08T05:42:22.977Z,10.21
2023-05-08T05:44:50.714Z,10.52
2023-05-08T05:47:19.094Z,10.65
2023-05-08T05:49:49.294Z,10.56
2023-05-08T05:52:17.543Z,10.74
2023-05-08T05:54:47.197Z,10.75
2023-05-08T05:57:15.916Z,11.20
2023-05-08T05:59:43.677Z,11.79
2023-05-08T06:02:18.986Z,11.79
2023-05-08T06:04:47.888Z,11.61
2023-05-08T06:07:15.862Z,11.41
2023-05-08T06:09:44.128Z,11.40
2023-05-08T06:12:12.282Z,11.55
2023-05-08T06:14:40.575Z,11.59
2023-05-08T06:17:10.005Z,11.54
2023-05-08T06:19:38.126Z,11.80
2023-05-08T06:22:06.421Z,11.90
2023-05-08T06:24:35.929Z,11.71
2023-05-08T06:27:04.485Z,11.50
2023-05-08T06:29:32.368Z,11.38
2023-05-08T06:32:00.876Z,11.20
2023-05-08T06:34:28.807Z,11.06
2023-05-08T06:36:57.275Z,11.05
2023-05-08T06:39:25.292Z,11.10
2023-05-08T06:41:53.642Z,11.18
2023-05-08T06:44:30.030Z,11.73
2023-05-08T06:46:59.376Z,11.99
2023-05-08T06:49:27.024Z,12.05
2023-05-08T06:51:57.714Z,12.08
2023-05-08T06:54:25.772Z,12.28
2023-05-08T06:56:54.752Z,12.38
2023-05-08T06:59:23.498Z,12.72
2023-05-08T07:01:52.019Z,12.87
2023-05-08T07:04:19.952Z,12.79
2023-05-08T07:06:48.167Z,12.88
2023-05-08T07:09:19.784Z,12.94
2023-05-08T07:11:48.372Z,12.85
2023-05-08T07:14:16.137Z,13.14
2023-05-08T07:16:44.339Z,13.16
2023-05-08T07:19:11.725Z,13.22
2023-05-08T07:21:40.500Z,13.59
2023-05-08T07:24:08.753Z,13.81
2023-05-08T07:26:37.059Z,13.75
2023-05-08T07:29:05.064Z,13.63
2023-05-08T07:31:33.506Z,13.95
2023-05-08T07:34:01.481Z,14.25
2023-05-08T07:36:30.840Z,13.87
2023-05-08T07:38:58.837Z,14.11
2023-05-08T07:41:27.667Z,14.04
2023-05-08T07:43:56.452Z,13.81
2023-05-08T07:46:26.037Z,13.63
2023-05-08T07:48:54.631Z,13.75
2023-05-08T07:51:24.327Z,13.83
2023-05-08T07:53:52.792Z,14.21
2023-05-08T07:56:23.532Z,14.66
2023-05-08T07:58:51.775Z,14.36
2023-05-08T08:01:20.415Z,14.35
2023-05-08T08:03:49.099Z,14.14
2023-05-08T08:06:19.248Z,14.27
2023-05-08T08:08:47.934Z,14.20
2023-05-08T08:11:16.705Z,14.31
2023-05-08T08:13:45.294Z,14.33
2023-05-08T08:16:13.970Z,14.14
2023-05-08T08:18:41.880Z,13.94
2023-05-08T08:21:10.337Z,14.16
2023-05-08T08:23:38.890Z,14.36
2023-05-08T08:26:07.593Z,14.34
2023-05-08T08:28:36.055Z,14.24
2023-05-08T08:31:05.519Z,13.86
2023-05-08T08:33:33.948Z,13.79
2023-05-08T08:36:02.773Z,14.02
2023-05-08T08:38:30.963Z,13.75
2023-05-08T08:41:00.195Z,13.58
2023-05-08T08:43:29.723Z,13.88
2023-05-08T08:45:59.871Z,13.97
2023-05-08T08:48:28.838Z,13.45
2023-05-08T08:51:02.175Z,13.20
2023-05-08T08:53:36.874Z,13.37
2023-05-08T08:56:07.213Z,13.93
2023-05-08T08:58:50.221Z,14.34
2023-05-08T09:01:18.602Z,14.65
2023-05-08T09:03:48.372Z,14.39
2023-05-08T09:06:19.926Z,13.82
2023-05-08T09:08:47.976Z,13.35
2023-05-08T09:11:16.498Z,13.22
2023-05-08T09:13:44.560Z,13.17
2023-05-08T09:16:13.266Z,13.12
2023-05-08T09:18:41.528Z,13.53
2023-05-08T09:21:09.609Z,13.59
2023-05-08T09:23:37.425Z,13.54
2023-05-08T09:26:06.036Z,13.79
2023-05-08T09:28:34.635Z,13.53
2023-05-08T09:31:03.384Z,13.27
2023-05-08T09:33:31.897Z,13.09
2023-05-08T09:36:00.773Z,13.10
2023-05-08T09:38:32.964Z,13.25
2023-05-08T09:41:16.535Z,13.20
2023-05-08T09:43:46.845Z,13.07
2023-05-08T09:46:25.679Z,13.15
2023-05-08T09:49:04.256Z,13.05
2023-05-08T09:51:33.860Z,12.98
2023-05-08T09:54:05.146Z,12.98
2023-05-08T09:56:39.706Z,12.95
2023-05-08T09:59:28.661Z,12.95
2023-05-08T10:01:58.218Z,12.91
2023-05-08T10:04:34.378Z,12.86
2023-05-08T10:07:04.521Z,12.71
2023-05-08T10:09:46.836Z,12.67
2023-05-08T10:12:16.512Z,12.93
2023-05-08T10:14:46.760Z,13.05
2023-05-08T10:17:17.032Z,13.49
2023-05-08T10:19:46.600Z,13.47
2023-05-08T10:22:16.966Z,13.45
2023-05-08T10:24:45.726Z,13.53
2023-05-08T10:27:42.813Z,13.61
2023-05-08T10:30:14.921Z,13.74
2023-05-08T10:32:52.195Z,13.66
2023-05-08T10:35:20.899Z,13.86
2023-05-08T10:37:49.989Z,13.94
2023-05-08T10:40:21.200Z,14.15
2023-05-08T10:42:49.869Z,13.98
2023-05-08T10:45:18.494Z,13.64
2023-05-08T10:48:24.808Z,13.50
2023-05-08T10:51:11.846Z,13.32
2023-05-08T10:53:58.396Z,13.24
2023-05-08T10:56:29.333Z,13.32
2023-05-08T10:59:00.406Z,13.60
2023-05-08T11:01:29.999Z,14.14
2023-05-08T11:04:00.556Z,14.39
2023-05-08T11:06:49.752Z,14.81
2023-05-08T11:09:23.956Z,14.56
2023-05-08T11:12:08.712Z,14.52
2023-05-08T11:14:42.807Z,14.68
2023-05-08T11:17:12.250Z,14.71
2023-05-08T11:20:00.268Z,14.54
2023-05-08T11:22:34.554Z,14.48
2023-05-08T11:25:06.730Z,14.50
2023-05-08T11:27:41.777Z,14.48
2023-05-08T11:30:33.737Z,14.36
2023-05-08T11:33:10.213Z,14.54
2023-05-08T11:36:12.293Z,14.68
2023-05-08T11:38:44.463Z,14.76
2023-05-08T11:41:24.346Z,14.72
2023-05-08T11:44:08.436Z,14.59
2023-05-08T11:46:44.229Z,14.49
2023-05-08T11:49:23.818Z,14.57
2023-05-08T11:51:56.922Z,14.56
2023-05-08T11:54:27.166Z,14.60
2023-05-08T11:56:56.585Z,14.51
2023-05-08T11:59:25.202Z,14.59
2023-05-08T12:02:06.860Z,14.32
2023-05-08T12:04:49.839Z,14.22
2023-05-08T12:07:19.389Z,14.17
2023-05-08T12:09:47.944Z,13.93
2023-05-08T12:12:17.644Z,13.90
2023-05-08T12:14:51.201Z,14.17
2023-05-08T12:17:20.528Z,14.39
2023-05-08T12:19:49.439Z,14.29
2023-05-08T12:22:19.017Z,14.54
2023-05-08T12:24:47.939Z,14.74
2023-05-08T12:27:17.893Z,14.90
2023-05-08T12:29:47.423Z,15.16
2023-05-08T12:32:16.598Z,15.33
2023-05-08T12:34:45.174Z,15.46
2023-05-08T12:37:24.159Z,15.52
2023-05-08T12:39:52.155Z,15.37
2023-05-08T12:42:20.583Z,15.32
2023-05-08T12:44:54.422Z,15.32
2023-05-08T12:47:25.125Z,15.59
2023-05-08T12:49:58.793Z,15.43
2023-05-08T12:52:29.273Z,15.37
2023-05-08T12:54:57.547Z,15.44
2023-05-08T12:57:25.793Z,15.33
2023-05-08T13:00:05.107Z,15.23
2023-05-08T13:02:37.237Z,15.40
2023-05-08T13:05:08.124Z,15.47
2023-05-08T13:07:37.026Z,15.48
2023-05-08T13:10:05.942Z,15.29
2023-05-08T13:12:34.873Z,15.35
2023-05-08T13:15:05.088Z,15.23
2023-05-08T13:17:33.710Z,15.48
2023-05-08T13:20:05.167Z,15.63
2023-05-08T13:22:34.259Z,15.48
2023-05-08T13:25:02.475Z,15.48
2023-05-08T13:27:31.024Z,15.52
2023-05-08T13:29:59.066Z,15.37
2023-05-08T13:32:27.484Z,15.25
2023-05-08T13:34:59.403Z,15.32
2023-05-08T13:37:29.288Z,15.49
2023-05-08T13:39:57.631Z,15.61
2023-05-08T13:42:26.290Z,15.43
2023-05-08T13:44:54.954Z,15.47
2023-05-08T13:47:24.543Z,15.49
2023-05-08T13:49:54.046Z,15.36
2023-05-08T13:52:23.500Z,15.42
2023-05-08T13:54:51.399Z,15.47
2023-05-08T13:57:20.197Z,15.26
2023-05-08T13:59:50.449Z,15.03
2023-05-08T14:02:21.336Z,14.98
2023-05-08T14:04:49.607Z,15.21
2023-05-08T14:07:19.073Z,15.41
2023-05-08T14:09:47.140Z,15.71
2023-05-08T14:12:16.700Z,15.73
2023-05-08T14:14:45.096Z,15.80
2023-05-08T14:17:14.200Z,15.60
2023-05-08T14:19:41.713Z,15.65
2023-05-08T14:22:10.068Z,15.52
2023-05-08T14:24:38.614Z,15.31
2023-05-08T14:27:07.014Z,15.19
2023-05-08T14:29:35.057Z,15.18
2023-05-08T14:32:03.844Z,15.21
2023-05-08T14:34:31.881Z,15.39
2023-05-08T14:37:01.329Z,15.49
2023-05-08T14:39:29.976Z,15.56
2023-05-08T14:42:20.677Z,15.92
2023-05-08T14:44:46.306Z,15.78
2023-05-08T14:47:14.721Z,15.56
2023-05-08T14:49:42.874Z,15.48
2023-05-08T14:52:11.064Z,15.29
2023-05-08T14:54:39.638Z,15.13
2023-05-08T14:57:08.522Z,15.01
2023-05-08T14:59:37.089Z,14.89
2023-05-08T15:02:06.940Z,14.79
2023-05-08T15:04:36.450Z,14.74
2023-05-08T15:07:05.694Z,14.65
2023-05-08T15:09:34.007Z,14.70
2023-05-08T15:12:03.720Z,14.99
2023-05-08T15:14:32.004Z,14.94
2023-05-08T15:17:00.429Z,15.12
2023-05-08T15:19:28.417Z,15.22
2023-05-08T15:21:57.150Z,15.23
2023-05-08T15:24:25.516Z,15.25
2023-05-08T15:26:53.781Z,15.19
2023-05-08T15:29:21.800Z,15.24
2023-05-08T15:31:51.010Z,15.22
2023-05-08T15:34:19.354Z,15.33
2023-05-08T15:36:49.193Z,15.40
2023-05-08T15:39:17.032Z,15.37
2023-05-08T15:41:45.681Z,15.39
2023-05-08T15:44:14.314Z,15.35
2023-05-08T15:46:42.897Z,15.18
2023-05-08T15:49:11.677Z,15.22
2023-05-08T15:51:40.824Z,15.11
2023-05-08T15:54:08.733Z,14.99
2023-05-08T15:56:38.033Z,14.95
2023-05-08T15:59:07.070Z,14.80
2023-05-08T16:01:36.562Z,14.64
2023-05-08T16:04:04.997Z,14.54
2023-05-08T16:06:33.079Z,14.51
2023-05-08T16:09:01.597Z,14.46
2023-05-08T16:11:33.188Z,14.33
2023-05-08T16:14:02.140Z,14.28
2023-05-08T16:16:30.945Z,14.41
2023-05-08T16:18:59.177Z,14.35
2023-05-08T16:21:28.159Z,14.26
2023-05-08T16:23:56.608Z,14.27
2023-05-08T16:26:24.474Z,14.19
2023-05-08T16:28:51.915Z,14.27
2023-05-08T16:31:20.074Z,14.41
2023-05-08T16:33:47.705Z,14.46
2023-05-08T16:36:16.296Z,14.49
2023-05-08T16:38:43.972Z,14.45
2023-05-08T16:41:13.704Z,14.47
2023-05-08T16:43:41.595Z,14.49
2023-05-08T16:46:10.113Z,14.58
2023-05-08T16:48:39.892Z,14.60
2023-05-08T16:51:09.241Z,14.63
2023-05-08T16:53:37.362Z,14.74
2023-05-08T16:56:05.844Z,14.76
2023-05-08T16:58:33.527Z,14.74
2023-05-08T17:01:01.400Z,14.70
2023-05-08T17:03:29.214Z,14.56
2023-05-08T17:06:00.835Z,14.64
2023-05-08T17:08:29.244Z,14.44
2023-05-08T17:10:58.175Z,14.47
2023-05-08T17:13:26.275Z,14.39
2023-05-08T17:15:54.687Z,14.33
2023-05-08T17:18:22.714Z,14.14
2023-05-08T17:20:51.165Z,14.12
2023-05-08T17:23:19.282Z,14.02
2023-05-08T17:25:48.322Z,14.07
2023-05-08T17:28:17.555Z,14.01
2023-05-08T17:30:48.141Z,13.95
2023-05-08T17:33:17.039Z,13.87
2023-05-08T17:35:46.747Z,13.85
2023-05-08T17:38:16.169Z,13.74
2023-05-08T17:40:47.061Z,13.65
2023-05-08T17:43:15.217Z,13.48
2023-05-08T17:45:44.599Z,13.39
2023-05-08T17:48:12.717Z,13.26
2023-05-08T17:50:42.665Z,13.16
2023-05-08T17:53:10.635Z,13.03
2023-05-08T17:55:38.970Z,12.88
2023-05-08T17:58:07.110Z,12.73
2023-05-08T18:00:36.512Z,12.56
2023-05-08T18:03:05.401Z,12.33
2023-05-08T18:05:34.053Z,12.17
2023-05-08T18:08:02.439Z,11.96
2023-05-08T18:10:32.733Z,11.73
2023-05-08T18:13:00.887Z,11.54
2023-05-08T18:15:30.054Z,11.35
2023-05-08T18:17:58.801Z,11.18
2023-05-08T18:20:27.443Z,10.94
2023-05-08T18:22:56.227Z,10.70
2023-05-08T18:25:24.406Z,10.57
2023-05-08T18:27:52.677Z,10.40
2023-05-08T18:30:21.371Z,10.26
2023-05-08T18:32:51.186Z,10.12
2023-05-08T18:35:21.941Z,9.94
2023-05-08T18:37:51.164Z,9.73
2023-05-08T18:40:19.902Z,9.66
2023-05-08T18:42:48.184Z,9.49
2023-05-08T18:45:17.206Z,9.31
2023-05-08T18:47:44.995Z,9.17
2023-05-08T18:50:13.681Z,8.96
2023-05-08T18:52:41.679Z,8.79
2023-05-08T18:55:10.651Z,8.62
2023-05-08T18:57:38.505Z,8.52
2023-05-08T19:00:07.450Z,8.44
2023-05-08T19:02:36.217Z,8.33
2023-05-08T19:05:05.163Z,8.22
2023-05-08T19:07:33.737Z,8.09
2023-05-08T19:10:02.137Z,7.97
2023-05-08T19:12:30.197Z,7.86
2023-05-08T19:14:58.529Z,7.71
2023-05-08T19:17:27.134Z,7.64
2023-05-08T19:19:55.876Z,7.52
2023-05-08T19:22:23.676Z,7.41
2023-05-08T19:24:52.214Z,7.27
2023-05-08T19:27:20.489Z,7.18
2023-05-08T19:29:49.137Z,7.11
2023-05-08T19:32:18.019Z,7.03
2023-05-08T19:34:46.911Z,6.89
2023-05-08T19:37:14.894Z,6.76
2023-05-08T19:39:43.403Z,6.71
2023-05-08T19:42:14.101Z,6.64
2023-05-08T19:44:45.841Z,6.55
2023-05-08T19:47:15.217Z,6.46
2023-05-08T19:49:44.097Z,6.37
2023-05-08T19:52:11.901Z,6.29
2023-05-08T19:54:40.544Z,6.19
2023-05-08T19:57:09.061Z,6.07
2023-05-08T19:59:37.716Z,5.90
2023-05-08T20:02:06.646Z,5.82
2023-05-08T20:04:48.699Z,5.79
2023-05-08T20:07:23.768Z,5.70
2023-05-08T20:09:52.233Z,5.69
2023-05-08T20:12:20.787Z,5.62
2023-05-08T20:14:49.526Z,5.54
2023-05-08T20:17:17.433Z,5.49
2023-05-08T20:19:45.908Z,5.42
2023-05-08T20:22:14.584Z,5.37
2023-05-08T20:24:43.594Z,5.29
2023-05-08T20:27:12.114Z,5.28
2023-05-08T20:29:40.955Z,5.22
2023-05-08T20:32:14.374Z,5.15
2023-05-08T20:34:44.879Z,5.12
2023-05-08T20:37:14.548Z,5.06
2023-05-08T20:39:43.448Z,4.95
2023-05-08T20:42:11.433Z,4.89
2023-05-08T20:44:39.867Z,4.83
2023-05-08T20:47:08.297Z,4.75
2023-05-08T20:49:37.176Z,4.68
2023-05-08T20:52:07.668Z,4.61
2023-05-08T20:54:36.268Z,4.53
2023-05-08T20:57:05.140Z,4.49
2023-05-08T20:59:34.181Z,4.42
2023-05-08T21:02:02.339Z,4.28
2023-05-08T21:04:31.272Z,4.29
2023-05-08T21:06:59.817Z,4.25
2023-05-08T21:09:28.385Z,4.22
2023-05-08T21:11:56.710Z,4.17
2023-05-08T21:14:25.001Z,4.13
2023-05-08T21:16:54.652Z,4.07
2023-05-08T21:19:24.171Z,4.00
2023-05-08T21:21:52.114Z,3.97
2023-05-08T21:24:21.658Z,3.94
2023-05-08T21:26:49.540Z,3.84
2023-05-08T21:29:17.966Z,3.80
2023-05-08T21:31:46.911Z,3.67
2023-05-08T21:34:16.545Z,3.57
2023-05-08T21:36:44.466Z,3.54
2023-05-08T21:39:15.357Z,3.53
2023-05-08T21:41:44.031Z,3.51
2023-05-08T21:44:13.620Z,3.44
2023-05-08T21:46:41.740Z,3.44
2023-05-08T21:49:11.321Z,3.32
2023-05-08T21:51:39.719Z,3.24
2023-05-08T21:54:09.361Z,3.14
2023-05-08T21:56:38.356Z,3.08
2023-05-08T21:59:08.223Z,3.04
2023-05-08T22:01:36.128Z,3.01
2023-05-08T22:04:04.593Z,2.98
2023-05-08T22:06:33.871Z,2.96
2023-05-08T22:09:02.781Z,2.97
2023-05-08T22:11:32.028Z,2.94
2023-05-08T22:14:00.077Z,2.92
2023-05-08T22:16:29.451Z,2.87
2023-05-08T22:18:57.368Z,2.89
2023-05-08T22:21:25.113Z,2.83
2023-05-08T22:23:53.222Z,2.76
2023-05-08T22:26:21.360Z,2.70
2023-05-08T22:28:49.682Z,2.70
2023-05-08T22:31:18.201Z,2.73
2023-05-08T22:33:46.365Z,2.62
2023-05-08T22:36:13.876Z,2.62
2023-05-08T22:38:41.998Z,2.56
2023-05-08T22:41:09.436Z,2.42
2023-05-08T22:43:38.328Z,2.37
2023-05-08T22:46:06.900Z,2.32
2023-05-08T22:48:34.907Z,2.25
2023-05-08T22:51:03.552Z,2.27
2023-05-08T22:53:31.499Z,2.25
2023-05-08T22:55:59.759Z,2.19
2023-05-08T22:58:29.516Z,2.23
2023-05-08T23:00:59.993Z,2.23
2023-05-08T23:03:28.199Z,2.24
2023-05-08T23:05:56.930Z,2.26
2023-05-08T23:08:25.045Z,2.27
2023-05-08T23:10:53.340Z,2.25
2023-05-08T23:13:20.846Z,2.21
2023-05-08T23:15:48.899Z,2.22
2023-05-08T23:18:16.293Z,2.21
2023-05-08T23:20:44.088Z,2.17
2023-05-08T23:23:11.470Z,2.14
2023-05-08T23:25:39.506Z,2.04
2023-05-08T23:28:06.813Z,1.99
2023-05-08T23:30:34.661Z,1.93
2023-05-08T23:33:02.777Z,1.92
2023-05-08T23:35:31.929Z,1.85
2023-05-08T23:37:59.221Z,1.75
2023-05-08T23:40:27.466Z,1.65
2023-05-08T23:42:55.130Z,1.59
2023-05-08T23:45:22.975Z,1.53
2023-05-08T23:47:50.534Z,1.50
2023-05-08T23:50:18.614Z,1.45
2023-05-08T23:52:46.405Z,1.47
2023-05-08T23:55:15.043Z,1.48
2023-05-08T23:57:43.273Z,1.51
